Time;durP1;ratioP1;P1;durP2;ratioP2;P2;SDS_P1;SDS_P2;PMS_P1;PMS_P2;Temp;Humidity;BMP_temperature;BMP_pressure;BME280_temperature;BME280_humidity;BME280_pressure;Samples;Min_cycle;Max_cycle;Signal;HPM_P1;HPM_P2
2022/02/24 00:01:42;;;;;;;12.57;2.35;;;;;;;7.78;79.13;101584.09;5060767;28;20032;-76
2022/02/24 00:04:07;;;;;;;12.27;2.35;;;;;;;7.72;79.70;101595.22;5050537;28;20028;-76
2022/02/24 00:06:32;;;;;;;11.77;2.30;;;;;;;7.70;79.80;101586.41;5051868;28;20029;-76
2022/02/24 00:08:58;;;;;;;16.48;2.67;;;;;;;7.74;79.54;101576.94;5046739;28;20625;-76
2022/02/24 00:11:23;;;;;;;13.07;3.28;;;;;;;7.73;79.91;101586.53;5063300;28;20051;-76
2022/02/24 00:13:48;;;;;;;14.15;2.20;;;;;;;7.70;80.26;101583.78;5042515;28;20029;-76
2022/02/24 00:16:13;;;;;;;14.27;2.35;;;;;;;7.75;79.84;101589.22;5066953;28;20395;-76
2022/02/24 00:18:39;;;;;;;17.02;3.40;;;;;;;7.70;80.04;101590.75;5060074;28;20036;-76
2022/02/24 00:21:04;;;;;;;12.90;2.47;;;;;;;7.69;80.47;101571.53;5071316;28;20031;-77
2022/02/24 00:23:29;;;;;;;9.45;2.08;;;;;;;7.80;80.11;101560.56;5064306;28;20082;-76
2022/02/24 00:25:55;;;;;;;14.15;2.90;;;;;;;7.69;80.24;101558.44;5058187;28;20413;-77
2022/02/24 00:28:20;;;;;;;12.98;3.20;;;;;;;7.70;80.23;101554.97;5061730;28;20108;-76
2022/02/24 00:30:45;;;;;;;11.30;2.50;;;;;;;7.70;80.04;101552.34;5056974;28;20020;-76
2022/02/24 00:33:11;;;;;;;13.73;2.30;;;;;;;7.69;80.15;101547.03;5055966;28;20028;-76
2022/02/24 00:35:36;;;;;;;13.18;3.00;;;;;;;7.68;80.43;101556.63;5041141;28;20110;-76
2022/02/24 00:38:03;;;;;;;12.80;3.03;;;;;;;7.63;80.42;101552.94;5059169;28;20052;-76
2022/02/24 00:40:28;;;;;;;15.10;2.20;;;;;;;7.69;80.42;101558.44;5061191;28;20413;-77
2022/02/24 00:42:53;;;;;;;11.75;2.78;;;;;;;7.66;80.13;101563.53;5053786;28;20078;-77
2022/02/24 00:45:19;;;;;;;10.10;2.58;;;;;;;7.72;79.52;101561.16;5057524;28;20038;-76
2022/02/24 00:47:44;;;;;;;15.73;2.55;;;;;;;7.76;79.48;101552.59;5054437;28;20028;-77
2022/02/24 00:50:10;;;;;;;8.68;2.17;;;;;;;7.78;79.54;101546.53;5054013;28;20044;-76
2022/02/24 00:52:36;;;;;;;10.90;1.92;;;;;;;7.74;80.05;101545.50;5063821;28;20060;-76
2022/02/24 00:55:01;;;;;;;13.27;2.30;;;;;;;7.73;79.38;101549.88;5049009;28;20120;-76
2022/02/24 00:57:26;;;;;;;11.30;2.05;;;;;;;7.75;79.75;101537.69;5041950;28;20085;-76
2022/02/24 00:59:52;;;;;;;11.02;2.75;;;;;;;7.74;80.03;101535.03;5053999;28;20025;-77
2022/02/24 01:02:17;;;;;;;11.77;2.10;;;;;;;7.76;79.59;101533.38;5039959;28;20049;-76
2022/02/24 01:04:43;;;;;;;13.25;2.42;;;;;;;7.78;79.71;101529.06;5062963;28;20067;-76
2022/02/24 01:07:08;;;;;;;18.35;2.53;;;;;;;7.73;80.25;101522.75;5063717;28;20074;-76
2022/02/24 01:09:34;;;;;;;10.45;3.05;;;;;;;7.78;80.19;101520.34;5052120;28;20025;-76
2022/02/24 01:12:00;;;;;;;9.60;2.15;;;;;;;7.74;80.32;101520.19;5045272;28;20040;-76
2022/02/24 01:14:25;;;;;;;18.10;3.60;;;;;;;7.75;81.17;101515.88;5051077;28;20075;-76
2022/02/24 01:16:51;;;;;;;17.02;2.67;;;;;;;7.78;80.79;101510.72;5050507;28;20476;-76
2022/02/24 01:19:16;;;;;;;18.27;2.60;;;;;;;7.79;80.83;101501.16;5056719;28;20024;-76
2022/02/24 01:21:41;;;;;;;15.52;2.03;;;;;;;7.76;81.38;101507.19;5072790;28;20099;-77
2022/02/24 01:24:07;;;;;;;13.00;2.78;;;;;;;7.73;81.46;101501.78;5069151;28;20048;-77
2022/02/24 01:26:32;;;;;;;13.32;2.38;;;;;;;7.74;81.45;101496.63;5038799;28;20912;-77
2022/02/24 01:28:58;;;;;;;10.85;2.25;;;;;;;7.73;82.21;101496.56;5056569;28;20166;-76
2022/02/24 01:31:24;;;;;;;10.55;2.78;;;;;;;7.73;82.41;101493.94;5071833;28;20035;-76
2022/02/24 01:33:50;;;;;;;13.68;2.63;;;;;;;7.75;82.17;101487.94;5056066;28;20032;-77
2022/02/24 01:36:15;;;;;;;17.30;2.40;;;;;;;7.81;82.10;101499.47;5056578;28;20030;-77
2022/02/24 01:38:40;;;;;;;11.65;3.05;;;;;;;7.78;82.32;101470.56;5063705;28;20041;-77
2022/02/24 01:41:06;;;;;;;9.27;2.05;;;;;;;7.79;82.97;101475.84;5067830;28;20026;-76
2022/02/24 01:43:31;;;;;;;16.00;3.08;;;;;;;7.79;83.09;101470.59;5059899;28;20103;-77
2022/02/24 01:45:57;;;;;;;12.27;2.88;;;;;;;7.79;83.14;101467.09;5043940;28;20025;-77
2022/02/24 01:48:23;;;;;;;9.27;2.42;;;;;;;7.79;83.33;101456.63;5052422;28;20041;-76
2022/02/24 01:50:49;;;;;;;8.98;2.30;;;;;;;7.80;83.27;101461.00;5025948;28;20026;-76
2022/02/24 01:53:15;;;;;;;15.50;3.60;;;;;;;7.78;83.52;101441.75;5045743;28;20112;-76
2022/02/24 01:55:40;;;;;;;10.18;2.30;;;;;;;7.78;83.72;101440.00;5021394;28;20468;-76
2022/02/24 01:58:06;;;;;;;16.40;3.10;;;;;;;7.75;84.47;101432.91;5050957;28;20048;-76
2022/02/24 02:00:32;;;;;;;19.13;2.78;;;;;;;7.78;84.88;101441.75;5034243;28;20043;-76
2022/02/24 02:02:57;;;;;;;21.85;2.83;;;;;;;7.81;84.54;101431.38;5048559;28;20448;-76
2022/02/24 02:05:23;;;;;;;12.63;2.30;;;;;;;7.74;84.96;101414.53;5018996;28;20041;-76
2022/02/24 02:07:48;;;;;;;13.05;2.75;;;;;;;7.74;85.54;101414.53;5047341;28;20028;-76
2022/02/24 02:10:13;;;;;;;10.07;2.33;;;;;;;7.73;85.95;101418.88;5044345;28;20021;-75
2022/02/24 02:12:51;;;;;;;16.63;2.63;;;;;;;7.72;85.88;101424.06;5042816;28;20099;-76
2022/02/24 02:15:18;;;;;;;23.30;3.47;;;;;;;7.73;85.81;101413.66;5022835;28;20075;-76
2022/02/24 02:17:43;;;;;;;15.73;2.70;;;;;;;7.75;85.96;101411.94;5030450;28;20047;-76
2022/02/24 02:20:09;;;;;;;6.53;2.22;;;;;;;7.72;86.01;101410.97;5031307;28;20116;-76
2022/02/24 02:22:35;;;;;;;14.07;3.40;;;;;;;7.74;85.92;101414.53;5046607;28;20029;-76
2022/02/24 02:25:03;;;;;;;16.98;4.20;;;;;;;7.70;86.32;101404.75;5051399;28;20465;-76
2022/02/24 02:27:29;;;;;;;9.18;2.30;;;;;;;7.68;86.22;101407.34;5044260;28;20029;-77
2022/02/24 02:29:55;;;;;;;12.95;2.70;;;;;;;7.70;86.08;101402.16;5042617;28;20362;-77
2022/02/24 02:32:20;;;;;;;11.02;2.58;;;;;;;7.72;86.64;101400.50;5055455;28;20062;-76
2022/02/24 02:34:45;;;;;;;12.57;2.78;;;;;;;7.68;86.65;101394.22;5039597;28;20075;-76
2022/02/24 02:37:10;;;;;;;10.70;2.63;;;;;;;7.64;86.85;101397.56;5042043;28;20489;-76
2022/02/24 02:39:36;;;;;;;14.23;3.13;;;;;;;7.63;87.10;101403.63;5045064;28;20115;-76
2022/02/24 02:42:01;;;;;;;13.77;2.58;;;;;;;7.60;87.29;101393.06;5034758;28;20033;-76
2022/02/24 02:44:27;;;;;;;15.18;2.35;;;;;;;7.63;87.22;101389.66;5022477;28;20371;-77
2022/02/24 02:46:52;;;;;;;8.40;1.95;;;;;;;7.67;86.80;101381.97;5045908;28;20033;-76
2022/02/24 02:49:17;;;;;;;14.23;2.67;;;;;;;7.72;86.39;101379.53;5061168;28;20032;-76
2022/02/24 02:51:42;;;;;;;12.20;2.28;;;;;;;7.63;86.83;101374.81;5055852;28;20061;-76
2022/02/24 02:54:08;;;;;;;20.75;2.38;;;;;;;7.63;86.82;101372.22;5060037;28;20035;-76
2022/02/24 02:56:33;;;;;;;13.02;2.30;;;;;;;7.67;86.66;101374.09;5065765;28;20052;-76
2022/02/24 02:59:00;;;;;;;10.02;2.25;;;;;;;7.65;86.80;101365.31;5064537;28;20028;-75
2022/02/24 03:01:26;;;;;;;11.30;3.17;;;;;;;7.65;86.51;101344.38;5063151;28;20039;-76
2022/02/24 03:03:51;;;;;;;14.00;2.58;;;;;;;7.63;86.37;101348.63;5062560;28;20029;-76
2022/02/24 03:06:17;;;;;;;16.15;3.47;;;;;;;7.57;86.71;101338.84;5044070;28;20031;-76
2022/02/24 03:08:42;;;;;;;12.25;2.17;;;;;;;7.62;86.69;101341.59;5065871;28;20536;-75
2022/02/24 03:11:07;;;;;;;11.68;2.25;;;;;;;7.60;86.84;101338.06;5058978;28;20021;-76
2022/02/24 03:13:34;;;;;;;15.35;2.15;;;;;;;7.64;86.38;101342.56;5051155;28;20024;-76
2022/02/24 03:16:00;;;;;;;8.88;2.03;;;;;;;7.63;86.75;101338.16;5064336;28;20112;-75
2022/02/24 03:18:25;;;;;;;10.30;2.22;;;;;;;7.62;86.57;101319.78;5048202;28;21870;-76
2022/02/24 03:20:50;;;;;;;8.57;2.28;;;;;;;7.65;86.74;101307.69;5041882;28;20047;-76
2022/02/24 03:23:16;;;;;;;10.90;2.03;;;;;;;7.63;87.00;101311.09;5063045;28;20077;-76
2022/02/24 03:25:42;;;;;;;16.38;3.13;;;;;;;7.64;87.14;101310.22;5059762;28;20103;-76
2022/02/24 03:28:07;;;;;;;8.73;2.33;;;;;;;7.59;87.50;101308.34;5063860;28;20017;-76
2022/02/24 03:30:34;;;;;;;14.18;2.47;;;;;;;7.57;87.11;101296.06;5051860;28;20074;-76
2022/02/24 03:33:01;;;;;;;7.50;2.53;;;;;;;7.55;87.30;101297.72;5065018;28;20675;-76
2022/02/24 03:35:27;;;;;;;13.07;2.22;;;;;;;7.53;87.59;101299.41;5074187;28;20039;-76
2022/02/24 03:37:52;;;;;;;7.65;1.98;;;;;;;7.51;87.62;101306.28;5069825;28;20025;-76
2022/02/24 03:40:18;;;;;;;8.93;2.45;;;;;;;7.56;87.28;101300.38;5053532;28;20119;-76
2022/02/24 03:42:45;;;;;;;11.02;2.35;;;;;;;7.56;87.30;101296.88;5058806;28;20488;-76
2022/02/24 03:45:10;;;;;;;13.40;2.65;;;;;;;7.56;87.61;101289.91;5040559;28;20035;-76
2022/02/24 03:47:36;;;;;;;10.00;3.47;;;;;;;7.57;87.65;101290.81;5062036;28;20029;-76
2022/02/24 03:50:03;;;;;;;12.93;2.70;;;;;;;7.50;88.55;101286.16;5051243;28;20055;-76
2022/02/24 03:52:28;;;;;;;12.02;3.17;;;;;;;7.50;88.49;101279.22;5069462;28;20086;-76
2022/02/24 03:54:54;;;;;;;11.02;2.33;;;;;;;7.49;88.48;101281.75;5059717;28;20053;-76
2022/02/24 03:57:19;;;;;;;13.80;2.75;;;;;;;7.47;88.71;101279.09;5062455;28;20028;-75
2022/02/24 03:59:45;;;;;;;11.38;3.50;;;;;;;7.54;88.86;101269.72;5052359;28;20025;-76
2022/02/24 04:02:11;;;;;;;11.93;2.28;;;;;;;7.48;89.15;101264.28;5063343;28;20528;-76
2022/02/24 04:04:37;;;;;;;11.52;2.90;;;;;;;7.53;89.01;101263.63;5067413;28;20457;-75
2022/02/24 04:07:04;;;;;;;13.63;2.88;;;;;;;7.48;89.37;101264.28;5058294;28;20032;-75
2022/02/24 04:09:29;;;;;;;9.85;2.03;;;;;;;7.41;89.63;101261.44;5061781;28;20041;-76
2022/02/24 04:11:55;;;;;;;8.05;2.05;;;;;;;7.39;90.03;101263.13;5060202;28;20366;-77
2022/02/24 04:14:21;;;;;;;13.32;3.45;;;;;;;7.38;89.73;101258.72;5042002;28;20115;-78
2022/02/24 04:16:47;;;;;;;9.90;2.33;;;;;;;7.40;89.65;101267.50;5056684;28;20163;-77
2022/02/24 04:19:12;;;;;;;14.10;2.58;;;;;;;7.41;89.64;101269.28;5058912;28;20468;-77
2022/02/24 04:21:37;;;;;;;13.25;2.58;;;;;;;7.47;89.53;101262.50;5048069;28;20926;-77
2022/02/24 04:24:04;;;;;;;14.70;3.35;;;;;;;7.40;89.57;101251.78;5063760;28;20020;-78
2022/02/24 04:26:31;;;;;;;13.48;2.45;;;;;;;7.38;89.57;101243.00;5064481;28;20496;-78
2022/02/24 04:28:57;;;;;;;16.75;3.00;;;;;;;7.37;90.04;101243.84;5041728;28;20032;-78
2022/02/24 04:31:22;;;;;;;11.55;2.47;;;;;;;7.37;90.16;101250.81;5053473;28;20489;-77
2022/02/24 04:33:48;;;;;;;8.32;2.97;;;;;;;7.36;90.46;101247.28;5068363;28;20479;-78
2022/02/24 04:36:13;;;;;;;15.15;3.35;;;;;;;7.31;90.81;101251.50;5052265;28;20041;-77
2022/02/24 04:38:39;;;;;;;8.93;2.35;;;;;;;7.34;90.66;101251.59;5040953;28;20029;-77
2022/02/24 04:41:04;;;;;;;13.70;3.28;;;;;;;7.36;90.31;101249.91;5046702;28;20035;-77
2022/02/24 04:43:30;;;;;;;9.05;2.42;;;;;;;7.34;91.28;101262.06;5068877;28;20341;-77
2022/02/24 04:45:55;;;;;;;17.42;2.80;;;;;;;7.38;90.92;101248.25;5074022;28;20032;-77
2022/02/24 04:48:21;;;;;;;11.90;2.80;;;;;;;7.32;91.50;101242.78;5044032;28;20492;-77
2022/02/24 04:50:47;;;;;;;9.25;2.55;;;;;;;7.32;91.25;101240.16;5056807;28;20029;-77
2022/02/24 04:53:12;;;;;;;13.85;2.58;;;;;;;7.38;91.66;101237.78;5070757;28;20031;-78
2022/02/24 04:55:38;;;;;;;17.27;3.03;;;;;;;7.33;91.66;101228.84;5069359;28;20028;-78
2022/02/24 04:58:03;;;;;;;20.65;4.18;;;;;;;7.36;91.61;101233.31;5070057;28;20036;-77
2022/02/24 05:00:30;;;;;;;13.95;2.40;;;;;;;7.37;91.67;101235.97;5070511;28;20798;-77
2022/02/24 05:02:55;;;;;;;14.75;2.83;;;;;;;7.33;91.45;101223.63;5064921;28;20028;-77
2022/02/24 05:05:20;;;;;;;12.73;2.97;;;;;;;7.35;91.68;101227.19;5057898;28;20039;-77
2022/02/24 05:07:46;;;;;;;12.27;2.92;;;;;;;7.38;92.08;101223.78;5047760;28;20486;-77
2022/02/24 05:10:11;;;;;;;13.50;2.80;;;;;;;7.36;91.94;101212.38;5055577;28;20025;-77
2022/02/24 05:12:36;;;;;;;17.13;3.10;;;;;;;7.36;92.00;101213.25;5040603;28;20028;-77
2022/02/24 05:15:02;;;;;;;13.20;2.58;;;;;;;7.38;92.35;101203.75;5048601;28;20075;-77
2022/02/24 05:17:28;;;;;;;13.23;2.65;;;;;;;7.40;92.17;101204.66;5071400;28;20034;-77
2022/02/24 05:19:53;;;;;;;13.57;2.28;;;;;;;7.40;91.79;101206.41;5068227;28;20060;-77
2022/02/24 05:22:18;;;;;;;10.23;2.53;;;;;;;7.39;92.06;101199.38;5074830;28;20806;-76
2022/02/24 05:24:44;;;;;;;17.20;2.60;;;;;;;7.38;92.15;101190.66;5057987;28;20028;-77
2022/02/24 05:27:09;;;;;;;9.90;2.63;;;;;;;7.44;92.27;101182.13;5067214;28;20036;-77
2022/02/24 05:29:37;;;;;;;18.65;3.25;;;;;;;7.41;92.13;101185.50;5066167;28;20025;-78
2022/02/24 05:32:04;;;;;;;15.45;3.65;;;;;;;7.35;92.42;101174.84;5054807;28;20116;-75
2022/02/24 05:34:30;;;;;;;14.55;2.70;;;;;;;7.38;92.12;101168.78;5064437;28;20032;-76
2022/02/24 05:36:55;;;;;;;10.50;2.88;;;;;;;7.36;92.39;101167.88;5065742;28;20020;-76
2022/02/24 05:39:21;;;;;;;11.25;2.45;;;;;;;7.47;91.56;101165.63;5064847;28;20029;-77
2022/02/24 05:41:46;;;;;;;15.55;3.03;;;;;;;7.38;92.11;101159.22;5040057;28;20090;-77
2022/02/24 05:44:11;;;;;;;14.00;3.22;;;;;;;7.38;91.93;101151.38;5060085;28;20054;-76
2022/02/24 05:46:36;;;;;;;13.57;2.97;;;;;;;7.43;91.43;101152.44;5068575;28;20338;-76
2022/02/24 05:49:02;;;;;;;16.90;2.72;;;;;;;7.36;91.81;101129.47;5058145;28;20080;-76
2022/02/24 05:51:27;;;;;;;12.82;2.42;;;;;;;7.38;91.69;101129.53;5048696;28;20025;-79
2022/02/24 05:53:53;;;;;;;17.95;3.15;;;;;;;7.41;91.51;101132.28;5066206;28;20500;-77
2022/02/24 05:56:18;;;;;;;13.50;4.00;;;;;;;7.37;91.84;101125.16;5049609;28;20024;-76
2022/02/24 05:58:43;;;;;;;10.23;2.25;;;;;;;7.37;91.35;101118.19;5036664;28;20396;-77
2022/02/24 06:01:10;;;;;;;16.02;3.45;;;;;;;7.36;91.70;101111.16;5055643;28;20055;-77
2022/02/24 06:03:36;;;;;;;11.55;2.13;;;;;;;7.39;91.71;101115.59;5053341;28;20477;-77
2022/02/24 06:06:02;;;;;;;14.90;3.00;;;;;;;7.40;91.86;101113.03;5047458;28;20031;-77
2022/02/24 06:08:27;;;;;;;9.10;2.15;;;;;;;7.47;91.42;101127.22;5044787;28;20469;-77
2022/02/24 06:10:55;;;;;;;9.00;2.17;;;;;;;7.42;91.53;101106.13;5057176;28;20028;-77
2022/02/24 06:13:20;;;;;;;10.20;2.60;;;;;;;7.42;91.60;101108.75;5053378;28;20047;-77
2022/02/24 06:15:46;;;;;;;13.85;2.47;;;;;;;7.43;91.82;101102.69;5065347;28;20028;-75
2022/02/24 06:18:16;;;;;;;7.28;2.53;;;;;;;7.43;91.84;101089.59;5052339;28;20455;-78
2022/02/24 06:20:41;;;;;;;12.98;2.20;;;;;;;7.41;91.79;101109.59;5041577;28;20028;-76
2022/02/24 06:23:07;;;;;;;11.57;2.90;;;;;;;7.40;92.24;101093.84;5049162;28;20111;-77
2022/02/24 06:25:32;;;;;;;15.48;2.80;;;;;;;7.46;92.11;101091.44;5069630;28;20051;-77
2022/02/24 06:27:58;;;;;;;15.32;2.85;;;;;;;7.46;92.22;101095.75;5047502;28;20033;-77
2022/02/24 06:30:24;;;;;;;11.13;2.30;;;;;;;7.44;92.08;101103.56;5064331;28;20154;-76
2022/02/24 06:32:49;;;;;;;11.27;2.25;;;;;;;7.47;91.87;101098.41;5047099;28;20040;-75
2022/02/24 06:35:15;;;;;;;13.82;2.20;;;;;;;7.48;92.09;101101.94;5057274;28;20032;-76
2022/02/24 06:37:42;;;;;;;15.00;2.70;;;;;;;7.51;91.65;101095.06;5065968;28;20024;-78
2022/02/24 06:40:09;;;;;;;13.00;2.42;;;;;;;7.47;92.10;101089.69;5049995;28;20028;-76
2022/02/24 06:42:38;;;;;;;13.90;2.65;;;;;;;7.52;91.68;101085.50;5046215;28;20025;-76
2022/02/24 06:45:04;;;;;;;17.52;2.78;;;;;;;7.49;92.01;101077.53;5063570;28;20027;-77
2022/02/24 06:47:30;;;;;;;9.32;2.67;;;;;;;7.51;91.81;101068.00;5055097;28;20555;-77
2022/02/24 06:49:55;;;;;;;9.45;2.88;;;;;;;7.49;91.96;101072.28;5069803;28;20052;-76
2022/02/24 06:52:21;;;;;;;10.05;1.92;;;;;;;7.41;92.60;101072.94;5053943;28;20028;-78
2022/02/24 06:54:46;;;;;;;10.00;2.13;;;;;;;7.50;91.98;101079.31;5041973;28;20033;-77
2022/02/24 06:57:13;;;;;;;10.50;2.00;;;;;;;7.47;92.15;101068.75;5053405;28;20072;-76
2022/02/24 06:59:38;;;;;;;11.25;2.55;;;;;;;7.50;91.81;101068.84;5066866;28;20047;-76
2022/02/24 07:02:05;;;;;;;8.02;2.10;;;;;;;7.52;91.71;101046.22;5064312;28;20400;-77
2022/02/24 07:04:32;;;;;;;12.75;2.45;;;;;;;7.52;91.54;101041.00;5069202;28;20090;-76
2022/02/24 07:06:58;;;;;;;10.93;2.17;;;;;;;7.52;91.25;101035.75;5046241;28;20385;-77
2022/02/24 07:09:25;;;;;;;12.25;2.42;;;;;;;7.52;91.36;101038.38;5047849;28;20037;-76
2022/02/24 07:11:50;;;;;;;14.27;3.28;;;;;;;7.54;91.54;101028.81;5063846;28;20060;-76
2022/02/24 07:14:16;;;;;;;15.25;2.90;;;;;;;7.57;91.14;101034.16;5049951;28;20055;-76
2022/02/24 07:16:41;;;;;;;16.67;3.10;;;;;;;7.58;91.33;101036.84;5051834;28;20048;-77
2022/02/24 07:19:06;;;;;;;10.35;2.38;;;;;;;7.65;91.19;101040.53;5069700;28;20126;-77
2022/02/24 07:21:32;;;;;;;17.90;2.67;;;;;;;7.62;91.13;101032.56;5066040;28;20025;-75
2022/02/24 07:23:57;;;;;;;11.30;2.60;;;;;;;7.62;90.90;101024.72;5047444;28;20089;-77
2022/02/24 07:26:23;;;;;;;12.23;2.20;;;;;;;7.63;91.06;101025.63;5047365;28;20024;-77
2022/02/24 07:28:48;;;;;;;8.65;2.45;;;;;;;7.64;90.83;101014.28;5054479;28;20468;-75
2022/02/24 07:31:13;;;;;;;8.63;2.20;;;;;;;7.66;90.97;101018.72;5034478;28;20468;-76
2022/02/24 07:33:39;;;;;;;13.88;2.50;;;;;;;7.70;90.86;101015.34;5048269;28;20036;-76
2022/02/24 07:36:05;;;;;;;15.85;2.35;;;;;;;7.68;91.00;101001.34;5063262;28;20029;-76
2022/02/24 07:38:30;;;;;;;15.65;2.28;;;;;;;7.66;91.60;100984.69;5050227;28;20028;-76
2022/02/24 07:40:56;;;;;;;13.20;3.28;;;;;;;7.67;91.84;100989.06;5065589;28;20350;-76
2022/02/24 07:43:21;;;;;;;10.32;1.98;;;;;;;7.67;91.58;100981.22;5070250;28;20031;-76
2022/02/24 07:45:47;;;;;;;11.13;2.40;;;;;;;7.69;91.47;100976.03;5056428;28;20040;-75
2022/02/24 07:48:12;;;;;;;12.35;3.47;;;;;;;7.70;91.75;100976.06;5069796;28;20067;-75
2022/02/24 07:50:37;;;;;;;10.38;2.63;;;;;;;7.74;91.47;100971.81;5055605;28;20499;-75
2022/02/24 07:53:03;;;;;;;13.80;1.90;;;;;;;7.73;91.72;100977.91;5063475;28;20388;-75
2022/02/24 07:55:29;;;;;;;8.05;2.15;;;;;;;7.75;91.90;100981.47;5054810;28;20082;-77
2022/02/24 07:57:55;;;;;;;10.75;2.60;;;;;;;7.72;91.96;100982.25;5068812;28;20135;-78
2022/02/24 08:00:20;;;;;;;11.18;2.65;;;;;;;7.73;92.19;100970.94;5054721;28;20542;-79
2022/02/24 08:02:47;;;;;;;14.23;1.85;;;;;;;7.75;91.85;100990.19;5054851;28;20032;-79
2022/02/24 08:05:13;;;;;;;10.80;1.80;;;;;;;7.69;92.09;100992.66;5065605;28;20371;-79
2022/02/24 08:07:38;;;;;;;6.68;1.73;;;;;;;7.71;92.04;100969.13;5054950;28;20111;-78
2022/02/24 08:10:05;;;;;;;22.52;3.45;;;;;;;7.80;92.09;100979.88;5060862;28;20029;-79
2022/02/24 08:12:40;;;;;;;8.63;2.05;;;;;;;7.76;92.48;100980.63;5065517;28;20089;-77
2022/02/24 08:15:16;;;;;;;8.98;1.77;;;;;;;7.77;92.32;100985.00;5052995;28;20032;-77
2022/02/24 08:17:43;;;;;;;13.07;2.20;;;;;;;7.76;92.65;100971.03;5052891;28;20028;-79
2022/02/24 08:20:09;;;;;;;14.88;1.98;;;;;;;7.71;93.12;100964.75;5075432;28;20031;-79
2022/02/24 08:22:36;;;;;;;6.45;1.55;;;;;;;7.73;93.33;100963.09;5073973;28;20032;-79
2022/02/24 08:25:03;;;;;;;10.48;1.65;;;;;;;7.84;93.03;100970.34;5057360;28;20025;-79
2022/02/24 08:27:28;;;;;;;11.13;2.40;;;;;;;7.82;93.13;100951.97;5062285;28;20047;-79
2022/02/24 08:29:54;;;;;;;10.98;2.05;;;;;;;7.86;93.00;100958.22;5061155;28;20099;-79
2022/02/24 08:32:19;;;;;;;10.90;2.67;;;;;;;7.87;93.10;100936.41;5052770;28;20021;-79
2022/02/24 08:34:44;;;;;;;11.90;1.90;;;;;;;7.82;92.93;100932.75;5054215;28;20028;-78
2022/02/24 08:37:10;;;;;;;7.32;1.77;;;;;;;7.81;93.43;100933.59;5076169;28;20043;-79
2022/02/24 08:39:35;;;;;;;10.05;2.22;;;;;;;7.89;92.51;100917.25;5062438;28;20094;-79
2022/02/24 08:42:01;;;;;;;11.43;1.90;;;;;;;7.89;91.26;100919.88;5047388;28;20028;-79
2022/02/24 08:44:26;;;;;;;10.85;1.80;;;;;;;7.80;92.10;100921.34;5061888;28;20383;-81
2022/02/24 08:46:52;;;;;;;9.77;2.22;;;;;;;7.86;91.26;100906.69;5043152;28;20033;-82
2022/02/24 08:49:17;;;;;;;15.85;2.08;;;;;;;7.93;91.21;100899.88;5050324;28;20041;-82
2022/02/24 08:51:42;;;;;;;9.60;1.85;;;;;;;7.88;90.72;100889.28;5038863;28;20041;-81
2022/02/24 08:54:08;;;;;;;6.07;2.67;;;;;;;7.91;90.65;100881.50;5042701;28;20018;-83
2022/02/24 08:56:34;;;;;;;7.93;2.28;;;;;;;7.95;90.47;100866.78;5027131;28;20021;-81
2022/02/24 08:59:01;;;;;;;12.52;2.15;;;;;;;7.98;90.74;100874.72;5057922;28;20099;-83
2022/02/24 09:01:27;;;;;;;13.45;2.72;;;;;;;8.02;90.40;100855.59;5048757;28;20492;-82
2022/02/24 09:03:52;;;;;;;8.93;1.80;;;;;;;8.05;90.32;100860.91;5034359;28;20017;-80
2022/02/24 09:06:17;;;;;;;12.30;2.40;;;;;;;8.06;90.29;100846.97;5056774;28;20017;-80
2022/02/24 09:08:44;;;;;;;14.45;2.55;;;;;;;8.14;89.85;100841.94;5025798;28;20052;-80
2022/02/24 09:11:11;;;;;;;13.27;2.28;;;;;;;8.20;89.40;100841.22;5033518;28;20496;-80
2022/02/24 09:13:39;;;;;;;10.65;2.25;;;;;;;8.28;89.55;100837.06;5034743;28;20021;-82
2022/02/24 09:16:06;;;;;;;14.38;2.83;;;;;;;8.47;88.30;100825.34;5057379;28;20127;-80
2022/02/24 09:18:31;;;;;;;10.23;2.22;;;;;;;8.50;88.25;100809.66;5047995;28;20492;-80
2022/02/24 09:20:57;;;;;;;10.43;1.90;;;;;;;8.58;87.57;100804.63;5034375;28;20017;-81
2022/02/24 09:23:22;;;;;;;10.88;2.78;;;;;;;8.59;87.51;100815.13;5049605;28;20042;-80
2022/02/24 09:25:47;;;;;;;7.00;1.92;;;;;;;8.58;87.34;100802.88;5048049;28;20021;-81
2022/02/24 09:28:13;;;;;;;15.07;2.30;;;;;;;8.62;87.47;100785.47;5051898;28;20037;-81
2022/02/24 09:30:39;;;;;;;10.20;2.08;;;;;;;8.67;87.46;100776.00;5043409;28;20556;-80
2022/02/24 09:33:05;;;;;;;13.07;2.35;;;;;;;8.95;85.86;100758.22;5047182;28;20028;-80
2022/02/24 09:35:30;;;;;;;15.93;2.60;;;;;;;9.06;85.46;100745.34;5035201;28;20036;-81
2022/02/24 09:37:55;;;;;;;10.57;2.78;;;;;;;9.11;85.47;100765.59;5039691;28;20029;-82
2022/02/24 09:40:22;;;;;;;10.85;2.58;;;;;;;9.02;85.32;100735.63;5047915;28;20022;-81
2022/02/24 09:42:49;;;;;;;12.85;2.60;;;;;;;9.24;85.19;100739.59;5037335;28;20095;-80
2022/02/24 09:45:14;;;;;;;10.07;3.20;;;;;;;9.36;84.25;100745.09;5049038;28;20028;-80
2022/02/24 09:47:40;;;;;;;11.55;2.42;;;;;;;9.43;83.56;100731.22;5064343;28;20107;-81
2022/02/24 09:50:07;;;;;;;7.35;1.90;;;;;;;9.70;82.27;100714.22;5085493;28;20048;-80
2022/02/24 09:52:34;;;;;;;21.40;3.08;;;;;;;9.88;81.63;100712.75;5055393;28;20105;-80
2022/02/24 09:54:59;;;;;;;10.38;2.65;;;;;;;10.02;80.72;100732.25;5067549;28;20028;-82
2022/02/24 09:57:24;;;;;;;13.65;2.50;;;;;;;10.37;79.86;100718.84;5060868;28;20028;-82
2022/02/24 09:59:50;;;;;;;13.20;2.78;;;;;;;10.30;80.17;100714.31;5063787;28;20039;-82
2022/02/24 10:02:15;;;;;;;25.27;4.07;;;;;;;10.19;79.67;100701.00;5074115;28;20108;-82
2022/02/24 10:05:06;;;;;;;12.93;2.97;;;;;;;10.19;79.55;100693.13;5051414;28;20020;-81
2022/02/24 10:07:35;;;;;;;7.85;2.25;;;;;;;10.12;80.14;100686.88;5054386;28;20033;-81
2022/02/24 10:10:21;;;;;;;16.85;2.75;;;;;;;10.24;79.83;100672.13;5077301;28;20024;-81
2022/02/24 10:13:14;;;;;;;13.55;2.42;;;;;;;10.62;78.99;100730.63;5066807;28;20118;-81
2022/02/24 10:15:42;;;;;;;10.63;2.25;;;;;;;10.27;78.97;100680.97;5046352;28;20478;-82
2022/02/24 10:18:10;;;;;;;11.38;3.28;;;;;;;9.96;80.34;100663.84;5052757;28;20039;-80
2022/02/24 10:20:40;;;;;;;14.05;2.72;;;;;;;9.89;80.67;100656.69;5076885;28;20028;-81
2022/02/24 10:23:06;;;;;;;12.45;3.35;;;;;;;10.07;81.25;100667.50;5059339;28;20033;-81
2022/02/24 10:25:46;;;;;;;10.90;2.63;;;;;;;9.86;81.20;100665.44;5045200;28;20031;-81
2022/02/24 10:28:30;;;;;;;13.90;2.95;;;;;;;9.44;82.85;100656.84;5039215;28;20047;-79
2022/02/24 10:30:57;;;;;;;12.52;3.33;;;;;;;9.47;83.63;100657.72;5066532;28;20174;-81
2022/02/24 10:33:28;;;;;;;10.18;2.50;;;;;;;9.58;82.59;100666.69;5067965;28;20024;-81
2022/02/24 10:35:56;;;;;;;13.70;3.13;;;;;;;9.25;84.11;100652.06;5041572;28;20032;-80
2022/02/24 10:38:28;;;;;;;11.38;2.63;;;;;;;9.15;84.98;100661.53;5075839;28;20101;-81
2022/02/24 10:40:56;;;;;;;13.23;2.80;;;;;;;9.08;85.58;100654.41;5042131;28;20036;-80
2022/02/24 10:43:36;;;;;;;9.18;2.60;;;;;;;9.02;85.56;100642.03;5062025;28;20027;-80
2022/02/24 10:46:20;;;;;;;11.35;2.78;;;;;;;9.08;86.21;100642.16;5062994;28;20048;-79
2022/02/24 10:48:51;;;;;;;11.15;2.75;;;;;;;9.13;85.98;100620.34;5075895;28;20110;-80
2022/02/24 10:51:36;;;;;;;9.80;2.70;;;;;;;9.08;86.26;100629.00;5066235;28;20028;-80
2022/02/24 10:54:08;;;;;;;11.13;2.38;;;;;;;9.20;85.57;100615.25;5062737;28;20074;-81
2022/02/24 10:56:36;;;;;;;7.00;2.53;;;;;;;9.17;85.80;100611.66;5056507;28;20110;-80
2022/02/24 10:59:02;;;;;;;7.72;2.38;;;;;;;9.27;85.67;100613.63;5067491;28;20029;-81
2022/02/24 11:01:29;;;;;;;10.35;2.78;;;;;;;9.22;84.96;100597.75;5052528;28;20033;-80
2022/02/24 11:04:04;;;;;;;11.82;3.03;;;;;;;9.37;85.21;100578.81;5041580;28;20032;-80
2022/02/24 11:06:35;;;;;;;11.68;2.80;;;;;;;9.32;84.71;100580.47;5049535;28;20126;-79
2022/02/24 11:09:03;;;;;;;11.48;3.42;;;;;;;9.28;84.83;100604.91;5061816;28;20132;-80
2022/02/24 11:11:30;;;;;;;11.52;2.60;;;;;;;9.26;84.42;100586.50;5061401;28;20504;-81
2022/02/24 11:13:57;;;;;;;12.70;3.38;;;;;;;9.22;84.88;100574.13;5061904;28;20099;-81
2022/02/24 11:16:24;;;;;;;14.02;2.65;;;;;;;9.13;85.41;100570.47;5045366;28;20107;-80
2022/02/24 11:18:50;;;;;;;9.43;3.00;;;;;;;9.08;86.60;100560.78;5066384;28;20035;-80
2022/02/24 11:21:17;;;;;;;17.17;3.00;;;;;;;9.00;88.52;100566.75;5057387;28;20033;-80
2022/02/24 11:23:45;;;;;;;13.80;2.85;;;;;;;8.72;90.98;100554.00;5075881;28;20476;-81